createdAt,value
2022-08-16T00:00:29.541Z,50.72
2022-08-16T00:03:06.948Z,50.29
2022-08-16T00:05:47.960Z,49.64
2022-08-16T00:08:36.468Z,49.76
2022-08-16T00:11:01.869Z,50.41
2022-08-16T00:13:28.847Z,50.15
2022-08-16T00:15:55.540Z,49.42
2022-08-16T00:18:29.600Z,47.84
2022-08-16T00:20:57.916Z,47.10
2022-08-16T00:23:34.668Z,46.39
2022-08-16T00:26:36.486Z,45.92
2022-08-16T00:28:55.084Z,46.74
2022-08-16T00:31:23.978Z,47.88
2022-08-16T00:33:51.103Z,49.00
2022-08-16T00:36:17.864Z,47.67
2022-08-16T00:38:44.512Z,48.08
2022-08-16T00:41:11.364Z,48.94
2022-08-16T00:43:42.880Z,50.44
2022-08-16T00:46:35.179Z,50.32
2022-08-16T00:49:17.648Z,51.25
2022-08-16T00:51:55.160Z,51.12
2022-08-16T00:54:26.811Z,51.34
2022-08-16T00:56:59.847Z,50.85
2022-08-16T00:59:32.860Z,50.88
2022-08-16T01:02:30.780Z,52.01
2022-08-16T01:05:09.707Z,51.75
2022-08-16T01:07:50.837Z,50.42
2022-08-16T01:10:21.153Z,50.55
2022-08-16T01:13:00.415Z,51.24
2022-08-16T01:15:27.961Z,51.05
2022-08-16T01:17:58.273Z,51.34
2022-08-16T01:20:30.343Z,51.51
2022-08-16T01:23:01.041Z,52.10
2022-08-16T01:25:36.307Z,52.27
2022-08-16T01:28:10.449Z,53.72
2022-08-16T01:30:54.078Z,53.32
2022-08-16T01:33:22.589Z,53.05
2022-08-16T01:35:56.390Z,52.23
2022-08-16T01:38:40.009Z,52.14
2022-08-16T01:41:21.004Z,51.99
2022-08-16T01:43:53.507Z,51.44
2022-08-16T01:46:39.310Z,53.29
2022-08-16T01:49:18.799Z,54.52
2022-08-16T01:51:50.614Z,54.10
2022-08-16T01:54:17.421Z,54.17
2022-08-16T01:56:58.578Z,53.10
2022-08-16T01:59:27.650Z,53.13
2022-08-16T02:02:00.070Z,52.98
2022-08-16T02:04:49.801Z,53.82
2022-08-16T02:07:18.130Z,52.07
2022-08-16T02:09:57.124Z,52.33
2022-08-16T02:12:50.216Z,51.41
2022-08-16T02:15:14.930Z,51.95
2022-08-16T02:17:42.673Z,52.10
2022-08-16T02:20:11.862Z,52.54
2022-08-16T02:22:38.931Z,54.17
2022-08-16T02:25:10.658Z,54.15
2022-08-16T02:27:40.995Z,54.24
2022-08-16T02:30:37.246Z,53.07
2022-08-16T02:33:05.221Z,55.76
2022-08-16T02:35:33.201Z,55.63
2022-08-16T02:38:01.623Z,54.43
2022-08-16T02:40:35.302Z,53.98
2022-08-16T02:43:02.798Z,54.80
2022-08-16T02:45:29.540Z,53.32
2022-08-16T02:48:01.367Z,53.50
2022-08-16T02:51:04.092Z,53.12
2022-08-16T02:53:31.523Z,53.54
2022-08-16T02:55:58.812Z,53.62
2022-08-16T02:58:26.683Z,52.49
2022-08-16T03:00:56.166Z,52.24
2022-08-16T03:03:25.910Z,52.62
2022-08-16T03:05:53.495Z,52.61
2022-08-16T03:08:49.851Z,52.97
2022-08-16T03:11:17.912Z,54.16
2022-08-16T03:13:53.129Z,55.25
2022-08-16T03:16:38.789Z,54.54
2022-08-16T03:19:10.213Z,55.35
2022-08-16T03:21:38.100Z,56.00
2022-08-16T03:24:28.969Z,56.66
2022-08-16T03:26:57.971Z,56.15
2022-08-16T03:29:30.841Z,55.04
2022-08-16T03:32:01.892Z,55.57
2022-08-16T03:34:31.259Z,55.27
2022-08-16T03:36:59.513Z,55.33
2022-08-16T03:39:27.120Z,53.85
2022-08-16T03:41:59.996Z,53.92
2022-08-16T03:44:43.423Z,54.26
2022-08-16T03:47:12.092Z,54.73
2022-08-16T03:49:38.975Z,55.22
2022-08-16T03:52:07.175Z,56.76
2022-08-16T03:54:35.658Z,55.83
2022-08-16T03:57:05.017Z,55.16
2022-08-16T03:59:32.196Z,53.84
2022-08-16T04:02:00.830Z,56.80
2022-08-16T04:04:33.045Z,57.12
2022-08-16T04:07:03.360Z,56.01
2022-08-16T04:09:35.694Z,55.66
2022-08-16T04:12:10.760Z,55.49
2022-08-16T04:14:50.863Z,53.51
2022-08-16T04:17:18.460Z,55.35
2022-08-16T04:19:46.817Z,56.94
2022-08-16T04:22:17.113Z,57.11
2022-08-16T04:24:54.056Z,55.94
2022-08-16T04:27:22.275Z,57.74
2022-08-16T04:29:52.273Z,56.16
2022-08-16T04:32:19.680Z,56.49
2022-08-16T04:34:46.751Z,53.71
2022-08-16T04:37:14.418Z,53.04
2022-08-16T04:39:47.471Z,54.18
2022-08-16T04:42:25.991Z,53.06
2022-08-16T04:44:55.746Z,52.91
2022-08-16T04:47:25.460Z,54.20
2022-08-16T04:49:58.950Z,54.51
2022-08-16T04:52:32.834Z,54.30
2022-08-16T04:55:11.888Z,54.14
2022-08-16T04:57:41.401Z,52.84
2022-08-16T05:00:32.077Z,52.96
2022-08-16T05:03:09.637Z,52.79
2022-08-16T05:05:45.515Z,52.89
2022-08-16T05:08:30.252Z,53.04
2022-08-16T05:11:00.612Z,54.99
2022-08-16T05:13:40.753Z,53.99
2022-08-16T05:16:29.907Z,53.53
2022-08-16T05:19:00.001Z,52.37
2022-08-16T05:21:27.475Z,52.78
2022-08-16T05:24:02.958Z,51.32
2022-08-16T05:26:34.788Z,51.29
2022-08-16T05:29:04.392Z,51.09
2022-08-16T05:31:32.313Z,52.39
2022-08-16T05:34:03.160Z,51.74
2022-08-16T05:36:33.810Z,51.04
2022-08-16T05:39:03.277Z,49.86
2022-08-16T05:41:30.637Z,50.15
2022-08-16T05:43:59.235Z,50.65
2022-08-16T05:46:29.731Z,51.54
2022-08-16T05:49:03.763Z,50.64
2022-08-16T05:51:38.372Z,51.24
2022-08-16T05:54:14.192Z,50.60
2022-08-16T05:56:42.842Z,49.79
2022-08-16T05:59:10.128Z,49.36
2022-08-16T06:01:38.883Z,48.88
2022-08-16T06:04:13.507Z,49.43
2022-08-16T06:06:55.903Z,49.44
2022-08-16T06:09:25.480Z,49.35
2022-08-16T06:11:52.927Z,49.09
2022-08-16T06:14:19.860Z,50.54
2022-08-16T06:16:50.698Z,50.03
2022-08-16T06:19:18.325Z,49.47
2022-08-16T06:21:46.037Z,48.33
2022-08-16T06:24:54.448Z,48.45
2022-08-16T06:27:08.728Z,48.48
2022-08-16T06:29:35.352Z,48.71
2022-08-16T06:32:02.636Z,49.20
2022-08-16T06:34:55.580Z,49.74
2022-08-16T06:37:17.996Z,49.80
2022-08-16T06:39:46.658Z,48.55
2022-08-16T06:42:18.321Z,48.21
2022-08-16T06:44:46.034Z,47.79
2022-08-16T06:47:13.355Z,47.95
2022-08-16T06:49:54.045Z,49.29
2022-08-16T06:52:59.576Z,50.36
2022-08-16T06:55:13.495Z,51.16
2022-08-16T06:57:41.406Z,50.35
2022-08-16T07:00:24.092Z,47.64
2022-08-16T07:02:52.259Z,45.41
2022-08-16T07:05:19.571Z,42.39
2022-08-16T07:07:50.988Z,40.49
2022-08-16T07:10:19.204Z,38.84
2022-08-16T07:13:03.377Z,39.44
2022-08-16T07:15:35.295Z,39.10
2022-08-16T07:18:01.947Z,38.40
2022-08-16T07:20:47.002Z,38.25
2022-08-16T07:23:16.378Z,37.04
2022-08-16T07:25:46.826Z,36.21
2022-08-16T07:28:20.683Z,36.24
2022-08-16T07:30:48.322Z,35.30
2022-08-16T07:33:15.852Z,35.67
2022-08-16T07:35:44.504Z,37.58
2022-08-16T07:38:19.701Z,37.32
2022-08-16T07:41:00.126Z,37.20
2022-08-16T07:43:29.747Z,36.90
2022-08-16T07:45:56.615Z,35.80
2022-08-16T07:48:23.974Z,36.31
2022-08-16T07:50:56.352Z,35.99
2022-08-16T07:53:29.086Z,34.82
2022-08-16T07:55:56.751Z,33.26
2022-08-16T07:58:34.457Z,33.78
2022-08-16T08:01:05.038Z,32.93
2022-08-16T08:03:42.567Z,32.89
2022-08-16T08:06:11.835Z,33.13
2022-08-16T08:08:50.339Z,32.87
2022-08-16T08:11:21.779Z,34.49
2022-08-16T08:13:56.612Z,33.53
2022-08-16T08:16:30.426Z,33.67
2022-08-16T08:19:02.265Z,33.70
2022-08-16T08:22:00.895Z,33.33
2022-08-16T08:24:22.674Z,33.45
2022-08-16T08:27:00.780Z,33.53
2022-08-16T08:29:37.254Z,33.61
2022-08-16T08:32:57.320Z,33.05
2022-08-16T08:35:03.043Z,32.72
2022-08-16T08:37:54.721Z,34.21
2022-08-16T08:40:24.554Z,34.15
2022-08-16T08:43:00.086Z,34.26
2022-08-16T08:45:46.855Z,33.53
2022-08-16T08:48:33.620Z,32.44
2022-08-16T08:51:08.944Z,34.32
2022-08-16T08:53:37.427Z,33.61
2022-08-16T08:56:23.448Z,33.20
2022-08-16T08:58:54.104Z,33.09
2022-08-16T09:01:36.397Z,33.54
2022-08-16T09:04:07.919Z,33.62
2022-08-16T09:06:35.720Z,33.53
2022-08-16T09:09:10.024Z,34.31
2022-08-16T09:11:49.590Z,33.63
2022-08-16T09:14:23.899Z,32.94
2022-08-16T09:17:01.797Z,34.62
2022-08-16T09:19:34.711Z,34.80
2022-08-16T09:22:02.030Z,35.08
2022-08-16T09:24:39.138Z,35.07
2022-08-16T09:27:15.930Z,35.53
2022-08-16T09:29:45.382Z,37.12
2022-08-16T09:32:28.568Z,38.50
2022-08-16T09:34:58.357Z,38.42
2022-08-16T09:37:29.777Z,39.27
2022-08-16T09:39:59.715Z,39.79
2022-08-16T09:42:28.740Z,40.59
2022-08-16T09:45:12.879Z,40.80
2022-08-16T09:47:56.986Z,39.61
2022-08-16T09:50:38.218Z,40.33
2022-08-16T09:53:14.868Z,40.15
2022-08-16T09:55:49.313Z,40.28
2022-08-16T09:58:40.738Z,40.26
2022-08-16T10:01:08.427Z,40.66
2022-08-16T10:03:37.815Z,40.41
2022-08-16T10:06:25.776Z,41.11
2022-08-16T10:09:05.384Z,41.42
2022-08-16T10:11:49.977Z,41.02
2022-08-16T10:14:17.364Z,41.74
2022-08-16T10:16:48.960Z,41.26
2022-08-16T10:19:19.354Z,41.33
2022-08-16T10:21:46.188Z,41.35
2022-08-16T10:24:28.326Z,40.41
2022-08-16T10:27:00.735Z,40.54
2022-08-16T10:30:01.058Z,40.43
2022-08-16T10:32:30.311Z,41.25
2022-08-16T10:34:57.871Z,41.00
2022-08-16T10:37:36.061Z,40.85
2022-08-16T10:40:28.827Z,40.23
2022-08-16T10:42:56.112Z,40.12
2022-08-16T10:45:22.884Z,41.17
2022-08-16T10:48:00.926Z,40.50
2022-08-16T10:50:31.992Z,40.09
2022-08-16T10:53:00.078Z,39.46
2022-08-16T10:55:40.875Z,40.42
2022-08-16T10:58:14.020Z,40.45
2022-08-16T11:00:46.053Z,40.11
2022-08-16T11:06:05.889Z,38.67
2022-08-16T11:08:36.118Z,38.65
2022-08-16T11:11:13.004Z,37.70
2022-08-16T11:14:10.839Z,37.96
2022-08-16T11:19:20.973Z,37.56
2022-08-16T11:24:42.680Z,36.52
2022-08-16T11:27:23.482Z,35.57
2022-08-16T11:29:55.056Z,34.99
2022-08-16T11:32:31.985Z,34.78
2022-08-16T11:35:13.221Z,35.16
2022-08-16T11:41:05.718Z,35.74
2022-08-16T11:43:37.595Z,35.02
2022-08-16T11:46:44.339Z,34.13
2022-08-16T11:48:56.690Z,34.32
2022-08-16T11:51:23.416Z,33.72
2022-08-16T11:53:50.130Z,33.34
2022-08-16T11:56:39.461Z,33.10
2022-08-16T11:59:05.789Z,32.88
2022-08-16T12:01:44.534Z,33.59
2022-08-16T12:04:19.722Z,32.49
2022-08-16T12:06:49.971Z,32.19
2022-08-16T12:09:20.527Z,32.48
2022-08-16T12:11:47.208Z,32.29
2022-08-16T12:14:19.996Z,32.21
2022-08-16T12:16:55.170Z,32.88
2022-08-16T12:19:33.440Z,33.33
2022-08-16T12:22:00.867Z,32.44
2022-08-16T12:24:32.386Z,32.44
2022-08-16T12:27:00.057Z,30.71
2022-08-16T12:29:29.345Z,30.87
2022-08-16T12:32:00.790Z,31.27
2022-08-16T12:34:29.419Z,31.23
2022-08-16T12:36:56.532Z,31.01
2022-08-16T12:39:23.204Z,30.75
2022-08-16T12:41:50.863Z,29.99
2022-08-16T12:44:19.894Z,31.22
2022-08-16T12:46:46.825Z,32.04
2022-08-16T12:49:14.273Z,33.12
2022-08-16T12:51:58.530Z,32.50
2022-08-16T12:54:27.071Z,33.00
2022-08-16T12:56:54.307Z,31.51
2022-08-16T12:59:23.586Z,31.96
2022-08-16T13:01:58.253Z,32.22
2022-08-16T13:04:26.486Z,31.19
2022-08-16T13:06:53.431Z,32.19
2022-08-16T13:09:23.700Z,31.76
2022-08-16T13:12:05.597Z,31.13
2022-08-16T13:14:37.039Z,30.20
2022-08-16T13:17:09.511Z,30.91
2022-08-16T13:22:25.262Z,31.24
2022-08-16T13:24:54.522Z,30.95
2022-08-16T13:28:02.532Z,29.77
2022-08-16T13:30:36.579Z,30.03
2022-08-16T13:32:58.688Z,30.71
2022-08-16T13:35:34.590Z,29.13
2022-08-16T13:38:01.912Z,27.51
2022-08-16T13:40:28.575Z,28.68
2022-08-16T13:42:57.856Z,29.44
2022-08-16T13:45:24.510Z,28.44
2022-08-16T13:47:53.094Z,29.07
2022-08-16T13:50:31.290Z,29.19
2022-08-16T13:53:07.745Z,28.46
2022-08-16T13:55:34.562Z,29.29
2022-08-16T13:58:36.796Z,29.00
2022-08-16T14:00:48.496Z,29.12
2022-08-16T14:03:20.338Z,28.88
2022-08-16T14:05:47.555Z,29.32
2022-08-16T14:08:14.248Z,29.16
2022-08-16T14:10:41.186Z,28.54
2022-08-16T14:13:07.879Z,28.91
2022-08-16T14:15:46.790Z,28.39
2022-08-16T14:18:20.334Z,27.62
2022-08-16T14:20:48.382Z,27.89
2022-08-16T14:23:17.345Z,27.44
2022-08-16T14:25:53.818Z,27.16
2022-08-16T14:28:21.910Z,27.83
2022-08-16T14:30:53.090Z,28.45
2022-08-16T14:33:20.290Z,28.05
2022-08-16T14:35:50.332Z,28.56
2022-08-16T14:38:19.198Z,28.32
2022-08-16T14:40:55.179Z,27.77
2022-08-16T14:43:25.851Z,28.40
2022-08-16T14:45:56.547Z,28.20
2022-08-16T14:48:26.340Z,27.78
2022-08-16T14:50:58.894Z,27.60
2022-08-16T14:53:27.424Z,27.41
2022-08-16T14:55:55.534Z,28.16
2022-08-16T14:58:34.906Z,28.49
2022-08-16T15:01:06.588Z,27.18
2022-08-16T15:03:37.799Z,27.36
2022-08-16T15:06:05.446Z,27.91
2022-08-16T15:08:36.527Z,27.10
2022-08-16T15:11:05.962Z,27.20
2022-08-16T15:13:34.741Z,27.47
2022-08-16T15:16:03.592Z,27.37
2022-08-16T15:18:31.718Z,27.03
2022-08-16T15:21:03.750Z,26.33
2022-08-16T15:23:33.945Z,26.43
2022-08-16T15:26:04.454Z,27.05
2022-08-16T15:28:35.990Z,26.77
2022-08-16T15:31:06.055Z,26.95
2022-08-16T15:33:44.305Z,27.17
2022-08-16T15:36:17.450Z,27.18
2022-08-16T15:38:57.530Z,27.12
2022-08-16T15:41:48.799Z,26.67
2022-08-16T15:44:22.355Z,27.40
2022-08-16T15:47:02.975Z,28.01
2022-08-16T15:49:38.901Z,27.54
2022-08-16T15:52:20.915Z,27.67
2022-08-16T15:54:56.182Z,27.42
2022-08-16T15:57:26.640Z,27.79
2022-08-16T15:59:58.406Z,26.94
2022-08-16T16:02:32.666Z,27.15
2022-08-16T16:05:04.441Z,27.30
2022-08-16T16:07:33.405Z,26.16
2022-08-16T16:10:04.059Z,27.48
2022-08-16T16:12:50.906Z,26.63
2022-08-16T16:15:22.700Z,27.26
2022-08-16T16:17:52.185Z,27.31
2022-08-16T16:20:21.804Z,27.41
2022-08-16T16:22:48.860Z,27.87
2022-08-16T16:25:18.692Z,26.61
2022-08-16T16:27:46.046Z,26.85
2022-08-16T16:30:38.122Z,26.53
2022-08-16T16:33:01.576Z,26.48
2022-08-16T16:35:32.884Z,27.17
2022-08-16T16:38:00.623Z,26.55
2022-08-16T16:40:33.197Z,27.09
2022-08-16T16:43:02.926Z,26.49
2022-08-16T16:45:34.749Z,26.85
2022-08-16T16:48:12.474Z,25.74
2022-08-16T16:50:45.378Z,27.17
2022-08-16T16:53:17.585Z,27.64
2022-08-16T16:55:51.745Z,28.24
2022-08-16T16:58:35.582Z,28.40
2022-08-16T17:01:04.088Z,28.59
2022-08-16T17:03:32.648Z,28.46
2022-08-16T17:06:03.202Z,28.98
2022-08-16T17:08:36.364Z,30.24
2022-08-16T17:11:03.826Z,29.58
2022-08-16T17:13:31.393Z,29.29
2022-08-16T17:15:58.850Z,29.53
2022-08-16T17:19:01.987Z,29.42
2022-08-16T17:21:12.352Z,29.53
2022-08-16T17:23:58.609Z,29.87
2022-08-16T17:26:30.065Z,29.15
2022-08-16T17:29:02.622Z,29.76
2022-08-16T17:31:40.788Z,29.93
2022-08-16T17:34:31.077Z,30.05
2022-08-16T17:37:05.400Z,29.94
2022-08-16T17:39:35.248Z,29.89
2022-08-16T17:42:21.547Z,30.07
2022-08-16T17:44:52.885Z,30.52
2022-08-16T17:47:21.806Z,30.55
2022-08-16T17:49:48.555Z,30.39
2022-08-16T17:52:15.610Z,30.89
2022-08-16T17:54:42.257Z,30.92
2022-08-16T17:57:08.890Z,30.59
2022-08-16T17:59:40.951Z,30.62
2022-08-16T18:02:42.715Z,30.74
2022-08-16T18:04:55.879Z,30.71
2022-08-16T18:07:23.033Z,31.72
2022-08-16T18:09:49.802Z,30.60
2022-08-16T18:12:54.978Z,31.39
2022-08-16T18:15:11.921Z,33.66
2022-08-16T18:17:39.258Z,32.98
2022-08-16T18:20:09.189Z,32.85
2022-08-16T18:22:35.851Z,33.72
2022-08-16T18:25:05.714Z,33.41
2022-08-16T18:27:32.329Z,33.27
2022-08-16T18:29:59.096Z,33.58
2022-08-16T18:32:26.410Z,32.42
2022-08-16T18:34:54.723Z,34.00
2022-08-16T18:37:23.722Z,34.94
2022-08-16T18:39:50.477Z,35.11
2022-08-16T18:42:17.173Z,34.44
2022-08-16T18:44:44.459Z,33.77
2022-08-16T18:47:11.411Z,33.82
2022-08-16T18:49:38.727Z,33.67
2022-08-16T18:52:06.206Z,33.00
2022-08-16T18:54:33.846Z,32.02
2022-08-16T18:57:20.470Z,32.75
2022-08-16T18:59:47.133Z,33.29
2022-08-16T19:02:56.905Z,33.93
2022-08-16T19:05:15.108Z,33.79
2022-08-16T19:07:41.862Z,33.07
2022-08-16T19:10:09.456Z,31.72
2022-08-16T19:12:41.844Z,31.55
2022-08-16T19:15:23.541Z,31.41
2022-08-16T19:17:50.177Z,31.46
2022-08-16T19:20:23.147Z,31.65
2022-08-16T19:23:10.289Z,31.22
2022-08-16T19:25:48.601Z,31.24
2022-08-16T19:28:50.170Z,30.97
2022-08-16T19:31:22.758Z,31.06
2022-08-16T19:33:53.694Z,29.74
2022-08-16T19:36:31.529Z,30.91
2022-08-16T19:39:09.846Z,31.07
2022-08-16T19:41:43.698Z,31.16
2022-08-16T19:44:11.535Z,31.95
2022-08-16T19:46:39.067Z,32.92
2022-08-16T19:49:05.779Z,32.78
2022-08-16T19:51:35.701Z,32.79
2022-08-16T19:54:04.657Z,33.29
2022-08-16T19:56:31.346Z,34.37
2022-08-16T20:01:44.688Z,34.07
2022-08-16T20:04:11.709Z,34.65
2022-08-16T20:06:39.071Z,34.77
2022-08-16T20:09:06.057Z,33.46
2022-08-16T20:11:33.265Z,33.03
2022-08-16T20:14:00.342Z,32.26
2022-08-16T20:16:26.993Z,32.03
2022-08-16T20:18:53.968Z,31.79
2022-08-16T20:21:20.647Z,30.46
2022-08-16T20:23:47.358Z,30.78
2022-08-16T20:26:14.011Z,30.94
2022-08-16T20:28:52.483Z,30.83
2022-08-16T20:31:22.517Z,31.17
2022-08-16T20:33:50.098Z,31.04
2022-08-16T20:36:17.750Z,31.78
2022-08-16T20:38:45.310Z,31.65
2022-08-16T20:41:11.979Z,31.86
2022-08-16T20:43:38.638Z,32.10
2022-08-16T20:46:05.336Z,31.80
2022-08-16T20:48:31.974Z,32.58
2022-08-16T20:50:58.593Z,33.81
2022-08-16T20:53:25.314Z,33.54
2022-08-16T20:55:52.053Z,33.85
2022-08-16T20:58:18.692Z,33.93
2022-08-16T21:00:45.513Z,34.19
2022-08-16T21:03:13.590Z,33.72
2022-08-16T21:05:40.345Z,33.69
2022-08-16T21:08:26.779Z,33.65
2022-08-16T21:10:54.315Z,34.66
2022-08-16T21:13:20.998Z,34.32
2022-08-16T21:15:48.104Z,33.82
2022-08-16T21:18:15.014Z,34.48
2022-08-16T21:20:41.657Z,35.37
2022-08-16T21:23:09.732Z,36.45
2022-08-16T21:25:39.647Z,37.35
2022-08-16T21:28:39.480Z,37.33
2022-08-16T21:31:08.272Z,37.83
2022-08-16T21:33:36.251Z,38.49
2022-08-16T21:36:03.181Z,38.92
2022-08-16T21:38:30.757Z,39.28
2022-08-16T21:41:03.767Z,39.29
2022-08-16T21:43:30.462Z,38.87
2022-08-16T21:45:57.633Z,39.02
2022-08-16T21:48:35.016Z,39.10
2022-08-16T21:51:07.978Z,39.13
2022-08-16T21:53:35.433Z,39.72
2022-08-16T21:56:03.938Z,40.54
2022-08-16T21:58:31.384Z,40.86
2022-08-16T22:00:58.605Z,41.34
2022-08-16T22:03:25.277Z,41.92
2022-08-16T22:06:13.456Z,42.87
2022-08-16T22:08:49.201Z,42.23
2022-08-16T22:11:23.907Z,42.53
2022-08-16T22:13:58.786Z,42.07
2022-08-16T22:16:28.788Z,41.68
2022-08-16T22:18:55.459Z,42.43
2022-08-16T22:21:22.505Z,41.93
2022-08-16T22:23:55.167Z,42.30
2022-08-16T22:26:30.397Z,41.36
2022-08-16T22:28:59.381Z,40.86
2022-08-16T22:31:26.021Z,41.21
2022-08-16T22:33:52.858Z,40.96
2022-08-16T22:36:19.498Z,40.38
2022-08-16T22:38:56.672Z,40.31
2022-08-16T22:41:24.343Z,41.11
2022-08-16T22:43:51.018Z,40.64
2022-08-16T22:46:17.656Z,42.55
2022-08-16T22:48:44.307Z,44.86
2022-08-16T22:51:10.992Z,44.86
2022-08-16T22:53:37.657Z,46.61
2022-08-16T22:56:04.922Z,46.81
2022-08-16T22:58:36.390Z,47.51
2022-08-16T23:01:05.418Z,47.83
2022-08-16T23:03:32.077Z,48.23
2022-08-16T23:06:00.650Z,48.00
2022-08-16T23:08:39.568Z,47.48
2022-08-16T23:11:16.880Z,47.93
2022-08-16T23:13:50.674Z,49.01
2022-08-16T23:16:25.107Z,49.87
2022-08-16T23:19:01.347Z,49.63
2022-08-16T23:21:27.981Z,49.52
2022-08-16T23:23:54.644Z,49.23
2022-08-16T23:26:45.298Z,49.01
2022-08-16T23:29:15.838Z,50.41
2022-08-16T23:31:57.066Z,50.31
2022-08-16T23:34:24.550Z,50.59
2022-08-16T23:36:51.505Z,50.53
2022-08-16T23:39:18.632Z,50.05
2022-08-16T23:41:45.349Z,50.14
2022-08-16T23:44:55.974Z,49.68
2022-08-16T23:46:58.703Z,49.68
2022-08-16T23:49:58.178Z,49.48
2022-08-16T23:52:12.123Z,50.10
2022-08-16T23:54:38.912Z,47.45
2022-08-16T23:57:05.619Z,48.33
2022-08-16T23:59:36.769Z,47.54
